Terminal Aerodrome Forecast
Issued by NWS

Home | Current Version | Previous Version | Text Only | Print | Product List | Glossary On
Versions: 1 2 3 4 5 6 7 8 9 10 11 12 13 14 15 16 17 18 19
000
FTUS45 KRIW 230900 AAA
TAFCPR
TAF AMD
KCPR 230943Z 2310/2406 VRB04KT 3SM BR OVC005
      TEMPO 2310/2313 3/4SM BR OVC003
     FM231600 VRB05KT P6SM SCT040 BKN080
     FM232000 08009KT P6SM VCTS SCT040CB BKN080
     FM240200 09011KT 5SM -SHRA BR SCT008 OVC020=

USA.gov is the U.S. government's official web portal to all federal, state and local government web resources and services.